sensor_id;sensor_type;location;lat;lon;timestamp;P1;durP1;ratioP1;P2;durP2;ratioP2
60432;SDS011;46286;48.098;11.590;2022-07-03T00:01:16;6.88;;;3.63;;
60432;SDS011;46286;48.098;11.590;2022-07-03T00:03:42;6.50;;;4.03;;
60432;SDS011;46286;48.098;11.590;2022-07-03T00:06:07;6.50;;;3.80;;
60432;SDS011;46286;48.098;11.590;2022-07-03T00:08:33;9.80;;;4.05;;
60432;SDS011;46286;48.098;11.590;2022-07-03T00:10:59;8.73;;;4.05;;
60432;SDS011;46286;48.098;11.590;2022-07-03T00:13:24;8.15;;;3.70;;
60432;SDS011;46286;48.098;11.590;2022-07-03T00:15:50;8.10;;;4.45;;
60432;SDS011;46286;48.098;11.590;2022-07-03T00:18:15;5.70;;;3.65;;
60432;SDS011;46286;48.098;11.590;2022-07-03T00:20:44;8.63;;;3.72;;
60432;SDS011;46286;48.098;11.590;2022-07-03T00:23:12;7.55;;;4.30;;
60432;SDS011;46286;48.098;11.590;2022-07-03T00:25:40;8.48;;;4.05;;
60432;SDS011;46286;48.098;11.590;2022-07-03T00:28:07;6.00;;;3.70;;
60432;SDS011;46286;48.098;11.590;2022-07-03T00:30:33;8.15;;;4.20;;
60432;SDS011;46286;48.098;11.590;2022-07-03T00:33:03;9.07;;;4.03;;
60432;SDS011;46286;48.098;11.590;2022-07-03T00:35:30;9.35;;;5.20;;
60432;SDS011;46286;48.098;11.590;2022-07-03T00:37:58;7.22;;;4.10;;
60432;SDS011;46286;48.098;11.590;2022-07-03T00:40:23;8.50;;;4.40;;
60432;SDS011;46286;48.098;11.590;2022-07-03T00:42:49;7.20;;;4.25;;
60432;SDS011;46286;48.098;11.590;2022-07-03T00:45:16;7.57;;;4.00;;
60432;SDS011;46286;48.098;11.590;2022-07-03T00:47:44;9.05;;;4.40;;
60432;SDS011;46286;48.098;11.590;2022-07-03T00:50:10;8.38;;;3.88;;
60432;SDS011;46286;48.098;11.590;2022-07-03T00:52:36;7.35;;;3.90;;
60432;SDS011;46286;48.098;11.590;2022-07-03T00:55:06;9.40;;;4.43;;
60432;SDS011;46286;48.098;11.590;2022-07-03T00:57:33;6.00;;;3.97;;
60432;SDS011;46286;48.098;11.590;2022-07-03T01:00:07;6.68;;;4.00;;
60432;SDS011;46286;48.098;11.590;2022-07-03T01:05:26;9.45;;;3.88;;
60432;SDS011;46286;48.098;11.590;2022-07-03T01:08:11;10.20;;;4.28;;
60432;SDS011;46286;48.098;11.590;2022-07-03T01:16:25;7.45;;;4.30;;
60432;SDS011;46286;48.098;11.590;2022-07-03T01:19:04;8.40;;;3.80;;
60432;SDS011;46286;48.098;11.590;2022-07-03T01:21:44;7.50;;;4.57;;
60432;SDS011;46286;48.098;11.590;2022-07-03T01:27:07;7.07;;;3.90;;
60432;SDS011;46286;48.098;11.590;2022-07-03T01:29:49;7.07;;;4.05;;
60432;SDS011;46286;48.098;11.590;2022-07-03T01:32:22;8.65;;;3.80;;
60432;SDS011;46286;48.098;11.590;2022-07-03T01:34:52;7.35;;;4.05;;
60432;SDS011;46286;48.098;11.590;2022-07-03T01:37:20;6.13;;;3.80;;
60432;SDS011;46286;48.098;11.590;2022-07-03T01:39:49;7.50;;;3.80;;
60432;SDS011;46286;48.098;11.590;2022-07-03T01:42:18;6.38;;;4.10;;
60432;SDS011;46286;48.098;11.590;2022-07-03T01:44:45;7.60;;;3.90;;
60432;SDS011;46286;48.098;11.590;2022-07-03T01:47:12;6.80;;;4.07;;
60432;SDS011;46286;48.098;11.590;2022-07-03T01:49:41;6.03;;;3.88;;
60432;SDS011;46286;48.098;11.590;2022-07-03T01:52:06;9.68;;;3.90;;
60432;SDS011;46286;48.098;11.590;2022-07-03T01:54:35;8.00;;;4.03;;
60432;SDS011;46286;48.098;11.590;2022-07-03T01:57:05;5.72;;;3.88;;
60432;SDS011;46286;48.098;11.590;2022-07-03T01:59:31;7.68;;;4.30;;
60432;SDS011;46286;48.098;11.590;2022-07-03T02:02:40;7.88;;;3.92;;
60432;SDS011;46286;48.098;11.590;2022-07-03T02:10:29;7.78;;;3.75;;
60432;SDS011;46286;48.098;11.590;2022-07-03T02:13:02;8.55;;;4.68;;
60432;SDS011;46286;48.098;11.590;2022-07-03T02:15:37;7.40;;;4.00;;
60432;SDS011;46286;48.098;11.590;2022-07-03T02:18:10;7.43;;;3.90;;
60432;SDS011;46286;48.098;11.590;2022-07-03T02:20:51;5.18;;;3.70;;
60432;SDS011;46286;48.098;11.590;2022-07-03T02:23:30;6.53;;;3.67;;
60432;SDS011;46286;48.098;11.590;2022-07-03T02:25:59;7.07;;;3.80;;
60432;SDS011;46286;48.098;11.590;2022-07-03T02:28:34;7.35;;;4.15;;
60432;SDS011;46286;48.098;11.590;2022-07-03T02:31:04;9.43;;;4.22;;
60432;SDS011;46286;48.098;11.590;2022-07-03T02:33:32;8.93;;;3.97;;
60432;SDS011;46286;48.098;11.590;2022-07-03T02:36:03;6.13;;;3.80;;
60432;SDS011;46286;48.098;11.590;2022-07-03T02:38:30;6.57;;;4.13;;
60432;SDS011;46286;48.098;11.590;2022-07-03T02:41:01;14.27;;;4.38;;
60432;SDS011;46286;48.098;11.590;2022-07-03T02:46:02;5.45;;;3.72;;
60432;SDS011;46286;48.098;11.590;2022-07-03T02:48:50;7.20;;;3.95;;
60432;SDS011;46286;48.098;11.590;2022-07-03T02:51:20;5.63;;;3.88;;
60432;SDS011;46286;48.098;11.590;2022-07-03T02:53:59;5.93;;;3.60;;
60432;SDS011;46286;48.098;11.590;2022-07-03T02:57:20;6.55;;;3.80;;
60432;SDS011;46286;48.098;11.590;2022-07-03T03:10:59;7.38;;;3.80;;
60432;SDS011;46286;48.098;11.590;2022-07-03T03:13:32;6.85;;;4.25;;
60432;SDS011;46286;48.098;11.590;2022-07-03T03:18:39;8.73;;;4.25;;
60432;SDS011;46286;48.098;11.590;2022-07-03T03:21:09;6.63;;;4.22;;
60432;SDS011;46286;48.098;11.590;2022-07-03T03:23:42;7.15;;;4.22;;
60432;SDS011;46286;48.098;11.590;2022-07-03T03:26:09;6.13;;;4.20;;
60432;SDS011;46286;48.098;11.590;2022-07-03T03:28:36;7.38;;;4.28;;
60432;SDS011;46286;48.098;11.590;2022-07-03T03:31:01;6.53;;;4.40;;
60432;SDS011;46286;48.098;11.590;2022-07-03T03:33:32;5.80;;;4.20;;
60432;SDS011;46286;48.098;11.590;2022-07-03T03:35:58;6.47;;;4.32;;
60432;SDS011;46286;48.098;11.590;2022-07-03T03:38:23;6.43;;;4.18;;
60432;SDS011;46286;48.098;11.590;2022-07-03T03:40:49;7.85;;;4.40;;
60432;SDS011;46286;48.098;11.590;2022-07-03T03:43:15;11.98;;;4.40;;
60432;SDS011;46286;48.098;11.590;2022-07-03T03:45:40;6.75;;;4.30;;
60432;SDS011;46286;48.098;11.590;2022-07-03T03:48:06;7.35;;;4.10;;
60432;SDS011;46286;48.098;11.590;2022-07-03T03:50:31;6.88;;;4.47;;
60432;SDS011;46286;48.098;11.590;2022-07-03T03:52:58;6.72;;;4.35;;
60432;SDS011;46286;48.098;11.590;2022-07-03T03:55:26;8.07;;;4.32;;
60432;SDS011;46286;48.098;11.590;2022-07-03T03:57:51;7.00;;;4.40;;
60432;SDS011;46286;48.098;11.590;2022-07-03T04:00:16;9.07;;;4.45;;
60432;SDS011;46286;48.098;11.590;2022-07-03T04:02:42;7.50;;;4.35;;
60432;SDS011;46286;48.098;11.590;2022-07-03T04:05:08;6.97;;;4.43;;
60432;SDS011;46286;48.098;11.590;2022-07-03T04:07:33;8.98;;;4.57;;
60432;SDS011;46286;48.098;11.590;2022-07-03T04:09:59;10.98;;;4.82;;
60432;SDS011;46286;48.098;11.590;2022-07-03T04:12:25;7.88;;;4.63;;
60432;SDS011;46286;48.098;11.590;2022-07-03T04:14:50;6.15;;;4.47;;
60432;SDS011;46286;48.098;11.590;2022-07-03T04:17:16;6.38;;;4.50;;
60432;SDS011;46286;48.098;11.590;2022-07-03T04:19:42;6.72;;;4.45;;
60432;SDS011;46286;48.098;11.590;2022-07-03T04:22:08;10.02;;;4.75;;
60432;SDS011;46286;48.098;11.590;2022-07-03T04:24:34;9.60;;;4.85;;
60432;SDS011;46286;48.098;11.590;2022-07-03T04:27:00;8.20;;;4.80;;
60432;SDS011;46286;48.098;11.590;2022-07-03T04:29:26;7.88;;;4.80;;
60432;SDS011;46286;48.098;11.590;2022-07-03T04:31:51;11.18;;;4.60;;
60432;SDS011;46286;48.098;11.590;2022-07-03T04:34:17;8.02;;;4.90;;
60432;SDS011;46286;48.098;11.590;2022-07-03T04:36:42;8.38;;;4.90;;
60432;SDS011;46286;48.098;11.590;2022-07-03T04:39:08;7.30;;;4.80;;
60432;SDS011;46286;48.098;11.590;2022-07-03T04:41:33;7.65;;;4.50;;
60432;SDS011;46286;48.098;11.590;2022-07-03T04:43:59;8.85;;;5.05;;
60432;SDS011;46286;48.098;11.590;2022-07-03T04:46:24;6.65;;;4.30;;
60432;SDS011;46286;48.098;11.590;2022-07-03T04:48:50;6.88;;;4.68;;
60432;SDS011;46286;48.098;11.590;2022-07-03T04:51:15;6.65;;;4.65;;
60432;SDS011;46286;48.098;11.590;2022-07-03T04:53:41;8.38;;;5.00;;
60432;SDS011;46286;48.098;11.590;2022-07-03T04:56:06;6.72;;;4.28;;
60432;SDS011;46286;48.098;11.590;2022-07-03T04:58:32;8.57;;;4.82;;
60432;SDS011;46286;48.098;11.590;2022-07-03T05:00:57;8.65;;;4.88;;
60432;SDS011;46286;48.098;11.590;2022-07-03T05:03:23;7.57;;;4.90;;
60432;SDS011;46286;48.098;11.590;2022-07-03T05:05:48;7.55;;;4.50;;
60432;SDS011;46286;48.098;11.590;2022-07-03T05:08:14;7.40;;;5.20;;
60432;SDS011;46286;48.098;11.590;2022-07-03T05:10:40;7.63;;;4.70;;
60432;SDS011;46286;48.098;11.590;2022-07-03T05:13:05;10.48;;;4.70;;
60432;SDS011;46286;48.098;11.590;2022-07-03T05:15:30;13.40;;;4.88;;
60432;SDS011;46286;48.098;11.590;2022-07-03T05:17:56;7.93;;;4.82;;
60432;SDS011;46286;48.098;11.590;2022-07-03T05:20:21;9.23;;;5.35;;
60432;SDS011;46286;48.098;11.590;2022-07-03T05:23:00;6.95;;;4.40;;
60432;SDS011;46286;48.098;11.590;2022-07-03T05:25:27;6.50;;;4.45;;
60432;SDS011;46286;48.098;11.590;2022-07-03T05:27:54;8.35;;;4.90;;
60432;SDS011;46286;48.098;11.590;2022-07-03T05:30:24;6.60;;;4.45;;
60432;SDS011;46286;48.098;11.590;2022-07-03T05:32:50;6.15;;;4.45;;
60432;SDS011;46286;48.098;11.590;2022-07-03T05:35:17;6.82;;;4.35;;
60432;SDS011;46286;48.098;11.590;2022-07-03T05:37:43;7.60;;;4.10;;
60432;SDS011;46286;48.098;11.590;2022-07-03T05:40:08;6.53;;;4.45;;
60432;SDS011;46286;48.098;11.590;2022-07-03T05:42:34;6.85;;;4.63;;
60432;SDS011;46286;48.098;11.590;2022-07-03T05:45:00;7.35;;;4.22;;
60432;SDS011;46286;48.098;11.590;2022-07-03T05:47:26;6.57;;;4.60;;
60432;SDS011;46286;48.098;11.590;2022-07-03T05:49:52;10.20;;;4.32;;
60432;SDS011;46286;48.098;11.590;2022-07-03T05:52:18;6.40;;;4.45;;
60432;SDS011;46286;48.098;11.590;2022-07-03T05:54:44;6.15;;;4.45;;
60432;SDS011;46286;48.098;11.590;2022-07-03T05:57:09;6.53;;;4.32;;
60432;SDS011;46286;48.098;11.590;2022-07-03T05:59:35;6.32;;;4.25;;
60432;SDS011;46286;48.098;11.590;2022-07-03T06:02:01;5.75;;;4.00;;
60432;SDS011;46286;48.098;11.590;2022-07-03T06:04:26;7.32;;;4.20;;
60432;SDS011;46286;48.098;11.590;2022-07-03T06:06:52;7.13;;;4.32;;
60432;SDS011;46286;48.098;11.590;2022-07-03T06:09:19;5.47;;;4.00;;
60432;SDS011;46286;48.098;11.590;2022-07-03T06:11:45;6.97;;;4.07;;
60432;SDS011;46286;48.098;11.590;2022-07-03T06:14:10;6.38;;;3.80;;
60432;SDS011;46286;48.098;11.590;2022-07-03T06:16:35;5.40;;;3.75;;
60432;SDS011;46286;48.098;11.590;2022-07-03T06:19:01;5.95;;;3.83;;
60432;SDS011;46286;48.098;11.590;2022-07-03T06:21:26;5.28;;;4.15;;
60432;SDS011;46286;48.098;11.590;2022-07-03T06:23:52;7.22;;;4.10;;
60432;SDS011;46286;48.098;11.590;2022-07-03T06:26:17;5.65;;;4.00;;
60432;SDS011;46286;48.098;11.590;2022-07-03T06:28:43;6.30;;;3.97;;
60432;SDS011;46286;48.098;11.590;2022-07-03T06:31:08;7.55;;;4.00;;
60432;SDS011;46286;48.098;11.590;2022-07-03T06:33:34;5.93;;;4.00;;
60432;SDS011;46286;48.098;11.590;2022-07-03T06:36:00;6.60;;;3.63;;
60432;SDS011;46286;48.098;11.590;2022-07-03T06:38:25;5.38;;;3.63;;
60432;SDS011;46286;48.098;11.590;2022-07-03T06:40:51;6.32;;;3.80;;
60432;SDS011;46286;48.098;11.590;2022-07-03T06:43:17;5.53;;;3.65;;
60432;SDS011;46286;48.098;11.590;2022-07-03T06:45:42;5.05;;;3.63;;
60432;SDS011;46286;48.098;11.590;2022-07-03T06:48:08;8.25;;;3.40;;
60432;SDS011;46286;48.098;11.590;2022-07-03T06:50:33;5.82;;;3.78;;
60432;SDS011;46286;48.098;11.590;2022-07-03T06:52:59;6.85;;;3.58;;
60432;SDS011;46286;48.098;11.590;2022-07-03T06:55:26;17.50;;;3.58;;
60432;SDS011;46286;48.098;11.590;2022-07-03T06:57:51;5.45;;;3.55;;
60432;SDS011;46286;48.098;11.590;2022-07-03T07:00:17;7.22;;;3.33;;
60432;SDS011;46286;48.098;11.590;2022-07-03T07:02:43;4.32;;;3.00;;
60432;SDS011;46286;48.098;11.590;2022-07-03T07:05:08;6.40;;;3.30;;
60432;SDS011;46286;48.098;11.590;2022-07-03T07:07:33;4.03;;;3.15;;
60432;SDS011;46286;48.098;11.590;2022-07-03T07:09:59;5.50;;;3.10;;
60432;SDS011;46286;48.098;11.590;2022-07-03T07:12:24;5.30;;;3.17;;
60432;SDS011;46286;48.098;11.590;2022-07-03T07:14:50;5.10;;;3.72;;
60432;SDS011;46286;48.098;11.590;2022-07-03T07:17:16;5.13;;;3.20;;
60432;SDS011;46286;48.098;11.590;2022-07-03T07:19:42;5.90;;;3.50;;
60432;SDS011;46286;48.098;11.590;2022-07-03T07:22:07;6.47;;;3.45;;
60432;SDS011;46286;48.098;11.590;2022-07-03T07:24:32;5.97;;;3.40;;
60432;SDS011;46286;48.098;11.590;2022-07-03T07:26:58;4.95;;;3.60;;
60432;SDS011;46286;48.098;11.590;2022-07-03T07:29:23;5.25;;;3.50;;
60432;SDS011;46286;48.098;11.590;2022-07-03T07:31:49;4.90;;;3.40;;
60432;SDS011;46286;48.098;11.590;2022-07-03T07:34:14;4.95;;;3.20;;
60432;SDS011;46286;48.098;11.590;2022-07-03T07:36:40;6.28;;;3.70;;
60432;SDS011;46286;48.098;11.590;2022-07-03T07:39:05;4.30;;;3.22;;
60432;SDS011;46286;48.098;11.590;2022-07-03T07:41:31;5.60;;;3.47;;
60432;SDS011;46286;48.098;11.590;2022-07-03T07:43:56;5.85;;;3.00;;
60432;SDS011;46286;48.098;11.590;2022-07-03T07:46:23;4.10;;;3.10;;
60432;SDS011;46286;48.098;11.590;2022-07-03T07:48:48;5.25;;;3.25;;
60432;SDS011;46286;48.098;11.590;2022-07-03T07:51:14;5.10;;;3.10;;
60432;SDS011;46286;48.098;11.590;2022-07-03T07:53:39;3.90;;;3.05;;
60432;SDS011;46286;48.098;11.590;2022-07-03T07:56:05;4.30;;;3.10;;
60432;SDS011;46286;48.098;11.590;2022-07-03T07:58:30;6.18;;;3.33;;
60432;SDS011;46286;48.098;11.590;2022-07-03T08:00:56;8.82;;;3.20;;
60432;SDS011;46286;48.098;11.590;2022-07-03T08:03:39;5.75;;;3.50;;
60432;SDS011;46286;48.098;11.590;2022-07-03T08:06:23;7.32;;;3.20;;
60432;SDS011;46286;48.098;11.590;2022-07-03T08:08:49;3.92;;;3.00;;
60432;SDS011;46286;48.098;11.590;2022-07-03T08:11:14;5.80;;;3.38;;
60432;SDS011;46286;48.098;11.590;2022-07-03T08:13:40;6.53;;;3.47;;
60432;SDS011;46286;48.098;11.590;2022-07-03T08:16:05;6.72;;;3.30;;
60432;SDS011;46286;48.098;11.590;2022-07-03T08:18:31;4.03;;;3.10;;
60432;SDS011;46286;48.098;11.590;2022-07-03T08:20:56;4.28;;;2.90;;
60432;SDS011;46286;48.098;11.590;2022-07-03T08:23:22;4.63;;;3.28;;
60432;SDS011;46286;48.098;11.590;2022-07-03T08:25:47;4.25;;;2.78;;
60432;SDS011;46286;48.098;11.590;2022-07-03T08:28:13;4.45;;;3.22;;
60432;SDS011;46286;48.098;11.590;2022-07-03T08:30:38;5.95;;;2.80;;
60432;SDS011;46286;48.098;11.590;2022-07-03T08:33:04;4.20;;;3.15;;
60432;SDS011;46286;48.098;11.590;2022-07-03T08:35:29;3.45;;;2.92;;
60432;SDS011;46286;48.098;11.590;2022-07-03T08:37:55;5.07;;;2.70;;
60432;SDS011;46286;48.098;11.590;2022-07-03T08:40:21;4.18;;;3.03;;
60432;SDS011;46286;48.098;11.590;2022-07-03T08:42:48;3.47;;;2.65;;
60432;SDS011;46286;48.098;11.590;2022-07-03T08:45:19;5.13;;;3.10;;
60432;SDS011;46286;48.098;11.590;2022-07-03T08:47:46;3.22;;;2.50;;
60432;SDS011;46286;48.098;11.590;2022-07-03T08:50:14;5.07;;;2.60;;
60432;SDS011;46286;48.098;11.590;2022-07-03T08:52:40;3.70;;;2.72;;
60432;SDS011;46286;48.098;11.590;2022-07-03T08:55:07;3.47;;;2.58;;
60432;SDS011;46286;48.098;11.590;2022-07-03T08:57:37;4.32;;;2.60;;
60432;SDS011;46286;48.098;11.590;2022-07-03T09:00:07;4.70;;;2.85;;
60432;SDS011;46286;48.098;11.590;2022-07-03T09:02:34;4.00;;;2.70;;
60432;SDS011;46286;48.098;11.590;2022-07-03T09:05:00;6.32;;;2.60;;
60432;SDS011;46286;48.098;11.590;2022-07-03T09:07:27;4.47;;;2.50;;
60432;SDS011;46286;48.098;11.590;2022-07-03T09:09:56;3.83;;;2.75;;
60432;SDS011;46286;48.098;11.590;2022-07-03T09:12:22;3.47;;;2.60;;
60432;SDS011;46286;48.098;11.590;2022-07-03T09:14:48;3.50;;;2.70;;
60432;SDS011;46286;48.098;11.590;2022-07-03T09:17:13;3.63;;;2.53;;
60432;SDS011;46286;48.098;11.590;2022-07-03T09:22:20;3.03;;;2.45;;
60432;SDS011;46286;48.098;11.590;2022-07-03T09:24:51;2.80;;;2.20;;
60432;SDS011;46286;48.098;11.590;2022-07-03T09:27:18;3.63;;;2.47;;
60432;SDS011;46286;48.098;11.590;2022-07-03T09:29:58;3.38;;;2.38;;
60432;SDS011;46286;48.098;11.590;2022-07-03T09:32:30;2.72;;;2.17;;
60432;SDS011;46286;48.098;11.590;2022-07-03T09:40:24;3.17;;;2.08;;
60432;SDS011;46286;48.098;11.590;2022-07-03T09:43:10;3.25;;;1.90;;
60432;SDS011;46286;48.098;11.590;2022-07-03T09:48:25;2.55;;;2.10;;
60432;SDS011;46286;48.098;11.590;2022-07-03T09:51:10;3.67;;;2.35;;
60432;SDS011;46286;48.098;11.590;2022-07-03T09:53:54;3.67;;;2.30;;
60432;SDS011;46286;48.098;11.590;2022-07-03T09:56:37;4.18;;;1.90;;
60432;SDS011;46286;48.098;11.590;2022-07-03T09:59:11;4.70;;;2.50;;
60432;SDS011;46286;48.098;11.590;2022-07-03T10:01:38;6.22;;;3.28;;
60432;SDS011;46286;48.098;11.590;2022-07-03T10:04:21;4.35;;;1.95;;
60432;SDS011;46286;48.098;11.590;2022-07-03T10:06:52;3.53;;;1.90;;
60432;SDS011;46286;48.098;11.590;2022-07-03T10:09:21;2.78;;;1.95;;
60432;SDS011;46286;48.098;11.590;2022-07-03T10:11:48;2.60;;;1.80;;
60432;SDS011;46286;48.098;11.590;2022-07-03T10:14:16;2.63;;;1.60;;
60432;SDS011;46286;48.098;11.590;2022-07-03T10:16:43;2.33;;;1.70;;
60432;SDS011;46286;48.098;11.590;2022-07-03T10:19:13;1.92;;;1.73;;
60432;SDS011;46286;48.098;11.590;2022-07-03T10:21:53;2.42;;;1.80;;
60432;SDS011;46286;48.098;11.590;2022-07-03T10:24:21;2.05;;;1.70;;
60432;SDS011;46286;48.098;11.590;2022-07-03T10:26:49;5.10;;;1.60;;
60432;SDS011;46286;48.098;11.590;2022-07-03T10:29:16;1.95;;;1.50;;
60432;SDS011;46286;48.098;11.590;2022-07-03T10:31:44;2.10;;;1.70;;
60432;SDS011;46286;48.098;11.590;2022-07-03T10:34:18;2.30;;;1.60;;
60432;SDS011;46286;48.098;11.590;2022-07-03T10:39:40;1.65;;;1.50;;
60432;SDS011;46286;48.098;11.590;2022-07-03T10:42:13;1.90;;;1.50;;
60432;SDS011;46286;48.098;11.590;2022-07-03T10:45:10;1.95;;;1.50;;
60432;SDS011;46286;48.098;11.590;2022-07-03T10:47:47;1.98;;;1.58;;
60432;SDS011;46286;48.098;11.590;2022-07-03T10:50:19;2.03;;;1.50;;
60432;SDS011;46286;48.098;11.590;2022-07-03T10:52:46;2.22;;;1.60;;
60432;SDS011;46286;48.098;11.590;2022-07-03T10:55:13;1.98;;;1.60;;
60432;SDS011;46286;48.098;11.590;2022-07-03T10:57:40;2.60;;;1.60;;
60432;SDS011;46286;48.098;11.590;2022-07-03T11:00:14;1.60;;;1.48;;
60432;SDS011;46286;48.098;11.590;2022-07-03T11:02:45;2.42;;;1.60;;
60432;SDS011;46286;48.098;11.590;2022-07-03T11:07:43;2.03;;;1.60;;
60432;SDS011;46286;48.098;11.590;2022-07-03T11:25:51;2.63;;;1.52;;
60432;SDS011;46286;48.098;11.590;2022-07-03T11:33:48;1.60;;;1.50;;
60432;SDS011;46286;48.098;11.590;2022-07-03T11:38:42;1.95;;;1.45;;
60432;SDS011;46286;48.098;11.590;2022-07-03T11:44:00;1.95;;;1.50;;
60432;SDS011;46286;48.098;11.590;2022-07-03T11:46:29;1.75;;;1.25;;
60432;SDS011;46286;48.098;11.590;2022-07-03T11:49:06;3.22;;;2.45;;
60432;SDS011;46286;48.098;11.590;2022-07-03T11:51:33;1.65;;;1.55;;
60432;SDS011;46286;48.098;11.590;2022-07-03T11:53:59;1.85;;;1.50;;
60432;SDS011;46286;48.098;11.590;2022-07-03T11:56:25;4.57;;;1.65;;
60432;SDS011;46286;48.098;11.590;2022-07-03T11:58:52;1.45;;;1.33;;
60432;SDS011;46286;48.098;11.590;2022-07-03T12:06:35;2.30;;;1.60;;
60432;SDS011;46286;48.098;11.590;2022-07-03T12:09:23;2.40;;;1.35;;
60432;SDS011;46286;48.098;11.590;2022-07-03T12:14:32;3.22;;;1.63;;
60432;SDS011;46286;48.098;11.590;2022-07-03T12:17:09;4.22;;;1.70;;
60432;SDS011;46286;48.098;11.590;2022-07-03T12:19:37;1.83;;;1.60;;
60432;SDS011;46286;48.098;11.590;2022-07-03T12:22:03;1.75;;;1.55;;
60432;SDS011;46286;48.098;11.590;2022-07-03T12:24:29;2.35;;;1.67;;
60432;SDS011;46286;48.098;11.590;2022-07-03T12:26:55;2.72;;;1.60;;
60432;SDS011;46286;48.098;11.590;2022-07-03T12:29:21;1.77;;;1.60;;
60432;SDS011;46286;48.098;11.590;2022-07-03T12:31:47;1.85;;;1.50;;
60432;SDS011;46286;48.098;11.590;2022-07-03T12:34:14;1.92;;;1.60;;
60432;SDS011;46286;48.098;11.590;2022-07-03T12:36:41;2.65;;;1.55;;
60432;SDS011;46286;48.098;11.590;2022-07-03T12:39:19;2.42;;;1.60;;
60432;SDS011;46286;48.098;11.590;2022-07-03T12:41:45;1.65;;;1.55;;
60432;SDS011;46286;48.098;11.590;2022-07-03T12:44:10;1.92;;;1.60;;
60432;SDS011;46286;48.098;11.590;2022-07-03T12:46:36;3.53;;;1.60;;
60432;SDS011;46286;48.098;11.590;2022-07-03T12:49:08;3.30;;;1.80;;
60432;SDS011;46286;48.098;11.590;2022-07-03T12:51:44;2.53;;;1.80;;
60432;SDS011;46286;48.098;11.590;2022-07-03T12:54:15;1.83;;;1.73;;
60432;SDS011;46286;48.098;11.590;2022-07-03T12:57:01;4.40;;;1.90;;
60432;SDS011;46286;48.098;11.590;2022-07-03T13:00:08;1.70;;;1.60;;
60432;SDS011;46286;48.098;11.590;2022-07-03T13:02:37;2.88;;;1.90;;
60432;SDS011;46286;48.098;11.590;2022-07-03T13:05:23;2.78;;;1.83;;
60432;SDS011;46286;48.098;11.590;2022-07-03T13:07:50;2.85;;;1.88;;
60432;SDS011;46286;48.098;11.590;2022-07-03T13:10:18;4.05;;;2.03;;
60432;SDS011;46286;48.098;11.590;2022-07-03T13:15:19;4.97;;;2.03;;
60432;SDS011;46286;48.098;11.590;2022-07-03T13:20:27;4.00;;;1.98;;
60432;SDS011;46286;48.098;11.590;2022-07-03T13:22:55;2.25;;;1.98;;
60432;SDS011;46286;48.098;11.590;2022-07-03T13:25:23;3.45;;;2.20;;
60432;SDS011;46286;48.098;11.590;2022-07-03T13:27:48;3.72;;;1.83;;
60432;SDS011;46286;48.098;11.590;2022-07-03T13:30:14;3.45;;;2.20;;
60432;SDS011;46286;48.098;11.590;2022-07-03T13:32:41;3.03;;;2.10;;
60432;SDS011;46286;48.098;11.590;2022-07-03T13:35:07;3.40;;;1.92;;
60432;SDS011;46286;48.098;11.590;2022-07-03T13:37:33;2.38;;;1.90;;
60432;SDS011;46286;48.098;11.590;2022-07-03T13:40:00;4.13;;;2.00;;
60432;SDS011;46286;48.098;11.590;2022-07-03T13:42:26;3.20;;;2.20;;
60432;SDS011;46286;48.098;11.590;2022-07-03T13:44:52;2.88;;;1.92;;
60432;SDS011;46286;48.098;11.590;2022-07-03T13:47:17;3.90;;;2.00;;
60432;SDS011;46286;48.098;11.590;2022-07-03T13:49:43;3.70;;;2.40;;
60432;SDS011;46286;48.098;11.590;2022-07-03T13:52:08;3.03;;;1.98;;
60432;SDS011;46286;48.098;11.590;2022-07-03T13:54:34;2.40;;;1.90;;
60432;SDS011;46286;48.098;11.590;2022-07-03T13:57:00;3.50;;;2.03;;
60432;SDS011;46286;48.098;11.590;2022-07-03T13:59:27;2.35;;;2.00;;
60432;SDS011;46286;48.098;11.590;2022-07-03T14:01:52;4.55;;;2.90;;
60432;SDS011;46286;48.098;11.590;2022-07-03T14:04:18;4.15;;;2.10;;
60432;SDS011;46286;48.098;11.590;2022-07-03T14:06:43;5.93;;;2.20;;
60432;SDS011;46286;48.098;11.590;2022-07-03T14:09:09;5.00;;;2.30;;
60432;SDS011;46286;48.098;11.590;2022-07-03T14:11:34;5.93;;;2.28;;
60432;SDS011;46286;48.098;11.590;2022-07-03T14:14:00;3.50;;;2.05;;
60432;SDS011;46286;48.098;11.590;2022-07-03T14:16:26;2.97;;;2.28;;
60432;SDS011;46286;48.098;11.590;2022-07-03T14:18:51;2.78;;;2.10;;
60432;SDS011;46286;48.098;11.590;2022-07-03T14:21:17;4.68;;;2.10;;
60432;SDS011;46286;48.098;11.590;2022-07-03T14:23:42;3.97;;;2.00;;
60432;SDS011;46286;48.098;11.590;2022-07-03T14:26:08;2.97;;;2.10;;
60432;SDS011;46286;48.098;11.590;2022-07-03T14:28:33;2.53;;;2.05;;
60432;SDS011;46286;48.098;11.590;2022-07-03T14:31:18;3.28;;;2.92;;
60432;SDS011;46286;48.098;11.590;2022-07-03T14:33:49;2.67;;;2.00;;
60432;SDS011;46286;48.098;11.590;2022-07-03T14:36:16;3.35;;;2.13;;
60432;SDS011;46286;48.098;11.590;2022-07-03T14:38:42;3.95;;;2.40;;
60432;SDS011;46286;48.098;11.590;2022-07-03T14:41:08;3.00;;;2.22;;
60432;SDS011;46286;48.098;11.590;2022-07-03T14:43:33;3.10;;;2.10;;
60432;SDS011;46286;48.098;11.590;2022-07-03T14:45:59;3.00;;;2.40;;
60432;SDS011;46286;48.098;11.590;2022-07-03T14:48:24;4.32;;;2.70;;
60432;SDS011;46286;48.098;11.590;2022-07-03T14:50:50;4.18;;;2.00;;
60432;SDS011;46286;48.098;11.590;2022-07-03T14:53:16;3.22;;;2.10;;
60432;SDS011;46286;48.098;11.590;2022-07-03T14:55:42;2.80;;;2.13;;
60432;SDS011;46286;48.098;11.590;2022-07-03T14:58:18;3.22;;;2.03;;
60432;SDS011;46286;48.098;11.590;2022-07-03T15:00:54;6.28;;;2.30;;
60432;SDS011;46286;48.098;11.590;2022-07-03T15:05:54;4.75;;;2.10;;
60432;SDS011;46286;48.098;11.590;2022-07-03T15:11:06;3.25;;;2.15;;
60432;SDS011;46286;48.098;11.590;2022-07-03T15:13:33;3.83;;;2.10;;
60432;SDS011;46286;48.098;11.590;2022-07-03T15:16:00;2.33;;;2.00;;
60432;SDS011;46286;48.098;11.590;2022-07-03T15:18:25;2.90;;;2.00;;
60432;SDS011;46286;48.098;11.590;2022-07-03T15:20:53;4.30;;;2.40;;
60432;SDS011;46286;48.098;11.590;2022-07-03T15:23:19;6.90;;;2.58;;
60432;SDS011;46286;48.098;11.590;2022-07-03T15:25:46;3.03;;;2.10;;
60432;SDS011;46286;48.098;11.590;2022-07-03T15:28:15;5.72;;;2.42;;
60432;SDS011;46286;48.098;11.590;2022-07-03T15:30:48;3.85;;;2.13;;
60432;SDS011;46286;48.098;11.590;2022-07-03T15:33:17;5.38;;;2.33;;
60432;SDS011;46286;48.098;11.590;2022-07-03T15:35:44;4.03;;;2.00;;
60432;SDS011;46286;48.098;11.590;2022-07-03T15:38:16;5.50;;;2.33;;
60432;SDS011;46286;48.098;11.590;2022-07-03T15:43:19;4.13;;;2.33;;
60432;SDS011;46286;48.098;11.590;2022-07-03T15:45:50;3.63;;;2.20;;
60432;SDS011;46286;48.098;11.590;2022-07-03T15:48:52;6.40;;;2.55;;
60432;SDS011;46286;48.098;11.590;2022-07-03T15:54:22;4.43;;;2.00;;
60432;SDS011;46286;48.098;11.590;2022-07-03T15:56:54;4.70;;;2.28;;
60432;SDS011;46286;48.098;11.590;2022-07-03T15:59:23;3.47;;;2.38;;
60432;SDS011;46286;48.098;11.590;2022-07-03T16:01:52;5.88;;;2.35;;
60432;SDS011;46286;48.098;11.590;2022-07-03T16:07:17;3.55;;;2.13;;
60432;SDS011;46286;48.098;11.590;2022-07-03T16:09:44;8.30;;;2.25;;
60432;SDS011;46286;48.098;11.590;2022-07-03T16:12:11;3.88;;;2.20;;
60432;SDS011;46286;48.098;11.590;2022-07-03T16:14:49;4.75;;;2.30;;
60432;SDS011;46286;48.098;11.590;2022-07-03T16:17:19;5.07;;;2.30;;
60432;SDS011;46286;48.098;11.590;2022-07-03T16:19:46;4.10;;;2.20;;
60432;SDS011;46286;48.098;11.590;2022-07-03T16:22:13;5.63;;;2.72;;
60432;SDS011;46286;48.098;11.590;2022-07-03T16:24:43;4.22;;;2.30;;